sensor_id;sensor_type;location;lat;lon;timestamp;P1;durP1;ratioP1;P2;durP2;ratioP2
51692;SDS011;37777;53.066;21.638;2022-07-29T00:05:18;2.97;;;2.10;;
51692;SDS011;37777;53.066;21.638;2022-07-29T00:12:22;5.30;;;1.95;;
51692;SDS011;37777;53.066;21.638;2022-07-29T00:19:27;3.58;;;2.08;;
51692;SDS011;37777;53.066;21.638;2022-07-29T00:26:29;3.47;;;2.28;;
51692;SDS011;37777;53.066;21.638;2022-07-29T00:33:33;1.90;;;1.70;;
51692;SDS011;37777;53.066;21.638;2022-07-29T00:40:35;2.50;;;2.08;;
51692;SDS011;37777;53.066;21.638;2022-07-29T00:47:40;3.88;;;2.58;;
51692;SDS011;37777;53.066;21.638;2022-07-29T00:54:42;2.28;;;2.08;;
51692;SDS011;37777;53.066;21.638;2022-07-29T01:01:45;3.58;;;2.00;;
51692;SDS011;37777;53.066;21.638;2022-07-29T01:08:47;2.63;;;2.20;;
51692;SDS011;37777;53.066;21.638;2022-07-29T01:15:51;3.30;;;2.00;;
51692;SDS011;37777;53.066;21.638;2022-07-29T01:30:08;3.25;;;2.30;;
51692;SDS011;37777;53.066;21.638;2022-07-29T01:37:41;2.92;;;2.30;;
51692;SDS011;37777;53.066;21.638;2022-07-29T01:44:54;4.38;;;2.30;;
51692;SDS011;37777;53.066;21.638;2022-07-29T01:52:00;2.47;;;2.28;;
51692;SDS011;37777;53.066;21.638;2022-07-29T01:59:07;3.33;;;1.93;;
51692;SDS011;37777;53.066;21.638;2022-07-29T02:06:10;2.90;;;2.00;;
51692;SDS011;37777;53.066;21.638;2022-07-29T02:13:13;2.60;;;2.35;;
51692;SDS011;37777;53.066;21.638;2022-07-29T02:20:16;2.30;;;2.10;;
51692;SDS011;37777;53.066;21.638;2022-07-29T02:27:18;2.42;;;2.20;;
51692;SDS011;37777;53.066;21.638;2022-07-29T02:34:22;3.05;;;1.98;;
51692;SDS011;37777;53.066;21.638;2022-07-29T02:41:33;2.55;;;2.05;;
51692;SDS011;37777;53.066;21.638;2022-07-29T02:48:41;3.38;;;2.13;;
51692;SDS011;37777;53.066;21.638;2022-07-29T02:55:46;2.15;;;1.90;;
51692;SDS011;37777;53.066;21.638;2022-07-29T03:02:52;3.10;;;2.47;;
51692;SDS011;37777;53.066;21.638;2022-07-29T03:09:55;2.40;;;2.20;;
51692;SDS011;37777;53.066;21.638;2022-07-29T03:16:58;3.95;;;2.10;;
51692;SDS011;37777;53.066;21.638;2022-07-29T03:24:01;3.05;;;2.60;;
51692;SDS011;37777;53.066;21.638;2022-07-29T03:38:13;3.13;;;2.83;;
51692;SDS011;37777;53.066;21.638;2022-07-29T03:45:16;3.13;;;2.92;;
51692;SDS011;37777;53.066;21.638;2022-07-29T03:52:19;3.97;;;3.13;;
51692;SDS011;37777;53.066;21.638;2022-07-29T03:59:22;3.00;;;2.80;;
51692;SDS011;37777;53.066;21.638;2022-07-29T04:06:24;3.35;;;2.90;;
51692;SDS011;37777;53.066;21.638;2022-07-29T04:13:27;3.13;;;2.80;;
51692;SDS011;37777;53.066;21.638;2022-07-29T04:20:29;5.05;;;2.90;;
51692;SDS011;37777;53.066;21.638;2022-07-29T04:27:31;3.60;;;3.25;;
51692;SDS011;37777;53.066;21.638;2022-07-29T04:34:35;2.38;;;2.15;;
51692;SDS011;37777;53.066;21.638;2022-07-29T04:41:37;6.20;;;2.85;;
51692;SDS011;37777;53.066;21.638;2022-07-29T04:48:40;3.33;;;2.33;;
51692;SDS011;37777;53.066;21.638;2022-07-29T04:55:42;2.72;;;2.05;;
51692;SDS011;37777;53.066;21.638;2022-07-29T05:02:45;3.08;;;2.20;;
51692;SDS011;37777;53.066;21.638;2022-07-29T05:09:47;2.63;;;2.15;;
51692;SDS011;37777;53.066;21.638;2022-07-29T05:16:49;4.90;;;2.17;;
51692;SDS011;37777;53.066;21.638;2022-07-29T05:23:52;4.20;;;1.98;;
51692;SDS011;37777;53.066;21.638;2022-07-29T05:30:54;2.45;;;1.80;;
51692;SDS011;37777;53.066;21.638;2022-07-29T05:37:56;4.10;;;1.52;;
51692;SDS011;37777;53.066;21.638;2022-07-29T05:44:58;1.70;;;1.60;;
51692;SDS011;37777;53.066;21.638;2022-07-29T05:52:00;2.00;;;1.70;;
51692;SDS011;37777;53.066;21.638;2022-07-29T05:59:03;3.75;;;1.58;;
51692;SDS011;37777;53.066;21.638;2022-07-29T06:06:18;2.05;;;1.50;;
51692;SDS011;37777;53.066;21.638;2022-07-29T06:13:20;3.08;;;1.40;;
51692;SDS011;37777;53.066;21.638;2022-07-29T06:20:22;3.28;;;1.20;;
51692;SDS011;37777;53.066;21.638;2022-07-29T06:27:27;2.70;;;1.20;;
51692;SDS011;37777;53.066;21.638;2022-07-29T06:34:30;2.55;;;1.33;;
51692;SDS011;37777;53.066;21.638;2022-07-29T06:41:32;2.53;;;1.50;;
51692;SDS011;37777;53.066;21.638;2022-07-29T06:48:35;3.53;;;1.27;;
51692;SDS011;37777;53.066;21.638;2022-07-29T06:55:37;1.60;;;1.30;;
51692;SDS011;37777;53.066;21.638;2022-07-29T07:02:39;2.58;;;1.20;;
51692;SDS011;37777;53.066;21.638;2022-07-29T07:09:41;8.50;;;1.48;;
51692;SDS011;37777;53.066;21.638;2022-07-29T07:16:43;3.42;;;1.48;;
51692;SDS011;37777;53.066;21.638;2022-07-29T07:23:46;1.40;;;1.20;;
51692;SDS011;37777;53.066;21.638;2022-07-29T07:30:48;2.05;;;1.15;;
51692;SDS011;37777;53.066;21.638;2022-07-29T07:37:50;5.60;;;1.20;;
51692;SDS011;37777;53.066;21.638;2022-07-29T07:44:52;1.38;;;1.00;;
51692;SDS011;37777;53.066;21.638;2022-07-29T07:52:14;1.50;;;1.20;;
51692;SDS011;37777;53.066;21.638;2022-07-29T07:59:17;1.45;;;1.25;;
51692;SDS011;37777;53.066;21.638;2022-07-29T08:06:19;2.92;;;1.20;;
51692;SDS011;37777;53.066;21.638;2022-07-29T08:13:22;1.92;;;1.17;;
51692;SDS011;37777;53.066;21.638;2022-07-29T08:20:26;5.55;;;1.23;;
51692;SDS011;37777;53.066;21.638;2022-07-29T08:27:29;0.98;;;0.98;;
51692;SDS011;37777;53.066;21.638;2022-07-29T08:34:47;1.13;;;1.02;;
51692;SDS011;37777;53.066;21.638;2022-07-29T08:41:49;1.25;;;1.00;;
51692;SDS011;37777;53.066;21.638;2022-07-29T08:48:57;1.00;;;1.00;;
51692;SDS011;37777;53.066;21.638;2022-07-29T08:56:00;2.90;;;1.10;;
51692;SDS011;37777;53.066;21.638;2022-07-29T09:03:04;1.13;;;1.00;;
51692;SDS011;37777;53.066;21.638;2022-07-29T09:10:06;2.30;;;0.95;;
51692;SDS011;37777;53.066;21.638;2022-07-29T09:17:09;1.38;;;1.00;;
51692;SDS011;37777;53.066;21.638;2022-07-29T09:24:11;2.60;;;1.10;;
51692;SDS011;37777;53.066;21.638;2022-07-29T09:31:14;0.93;;;0.93;;
51692;SDS011;37777;53.066;21.638;2022-07-29T09:38:16;2.60;;;1.17;;
51692;SDS011;37777;53.066;21.638;2022-07-29T09:45:34;4.20;;;1.40;;
51692;SDS011;37777;53.066;21.638;2022-07-29T09:52:46;1.67;;;1.00;;
51692;SDS011;37777;53.066;21.638;2022-07-29T10:00:09;1.00;;;1.00;;
51692;SDS011;37777;53.066;21.638;2022-07-29T10:07:13;1.30;;;1.00;;
51692;SDS011;37777;53.066;21.638;2022-07-29T10:14:15;2.65;;;1.10;;
51692;SDS011;37777;53.066;21.638;2022-07-29T10:21:17;1.38;;;0.90;;
51692;SDS011;37777;53.066;21.638;2022-07-29T10:28:36;3.80;;;1.00;;
51692;SDS011;37777;53.066;21.638;2022-07-29T10:35:41;1.10;;;1.00;;
51692;SDS011;37777;53.066;21.638;2022-07-29T10:43:25;4.95;;;1.02;;
51692;SDS011;37777;53.066;21.638;2022-07-29T10:58:17;2.30;;;1.15;;
51692;SDS011;37777;53.066;21.638;2022-07-29T11:05:26;5.25;;;1.20;;
51692;SDS011;37777;53.066;21.638;2022-07-29T11:19:46;3.20;;;1.20;;
51692;SDS011;37777;53.066;21.638;2022-07-29T11:41:24;1.88;;;1.27;;
51692;SDS011;37777;53.066;21.638;2022-07-29T11:48:28;2.08;;;1.05;;
51692;SDS011;37777;53.066;21.638;2022-07-29T11:55:34;2.38;;;1.10;;
51692;SDS011;37777;53.066;21.638;2022-07-29T12:02:52;3.42;;;1.10;;
51692;SDS011;37777;53.066;21.638;2022-07-29T12:09:54;8.93;;;1.20;;
51692;SDS011;37777;53.066;21.638;2022-07-29T12:16:57;1.90;;;1.13;;
51692;SDS011;37777;53.066;21.638;2022-07-29T12:24:01;3.30;;;1.08;;
51692;SDS011;37777;53.066;21.638;2022-07-29T12:31:13;4.82;;;1.15;;
51692;SDS011;37777;53.066;21.638;2022-07-29T12:38:35;4.90;;;1.13;;
51692;SDS011;37777;53.066;21.638;2022-07-29T12:45:38;0.90;;;0.90;;
51692;SDS011;37777;53.066;21.638;2022-07-29T12:52:41;3.42;;;1.35;;
51692;SDS011;37777;53.066;21.638;2022-07-29T12:59:43;2.25;;;1.25;;
51692;SDS011;37777;53.066;21.638;2022-07-29T13:06:46;1.48;;;1.30;;
51692;SDS011;37777;53.066;21.638;2022-07-29T13:13:51;6.60;;;1.10;;
51692;SDS011;37777;53.066;21.638;2022-07-29T13:21:11;2.35;;;1.00;;
51692;SDS011;37777;53.066;21.638;2022-07-29T13:28:15;1.85;;;1.00;;
51692;SDS011;37777;53.066;21.638;2022-07-29T13:35:18;2.00;;;1.38;;
51692;SDS011;37777;53.066;21.638;2022-07-29T13:42:21;0.90;;;0.90;;
51692;SDS011;37777;53.066;21.638;2022-07-29T13:49:25;1.73;;;1.23;;
51692;SDS011;37777;53.066;21.638;2022-07-29T13:56:30;5.07;;;1.00;;
51692;SDS011;37777;53.066;21.638;2022-07-29T14:03:32;5.45;;;1.40;;
51692;SDS011;37777;53.066;21.638;2022-07-29T14:10:34;0.90;;;0.90;;
51692;SDS011;37777;53.066;21.638;2022-07-29T14:17:36;4.15;;;1.00;;
51692;SDS011;37777;53.066;21.638;2022-07-29T14:24:38;3.05;;;1.08;;
51692;SDS011;37777;53.066;21.638;2022-07-29T14:31:41;16.52;;;1.55;;
51692;SDS011;37777;53.066;21.638;2022-07-29T14:38:44;1.48;;;0.90;;
51692;SDS011;37777;53.066;21.638;2022-07-29T14:45:47;3.53;;;1.00;;
51692;SDS011;37777;53.066;21.638;2022-07-29T14:52:49;1.98;;;1.10;;
51692;SDS011;37777;53.066;21.638;2022-07-29T14:59:51;5.78;;;1.17;;
51692;SDS011;37777;53.066;21.638;2022-07-29T15:06:54;10.00;;;1.58;;
51692;SDS011;37777;53.066;21.638;2022-07-29T15:13:56;2.08;;;1.33;;
51692;SDS011;37777;53.066;21.638;2022-07-29T15:20:58;3.47;;;0.90;;
51692;SDS011;37777;53.066;21.638;2022-07-29T15:28:02;31.65;;;3.53;;
51692;SDS011;37777;53.066;21.638;2022-07-29T15:35:09;22.80;;;3.07;;
51692;SDS011;37777;53.066;21.638;2022-07-29T15:42:14;18.00;;;1.88;;
51692;SDS011;37777;53.066;21.638;2022-07-29T15:49:18;12.88;;;1.60;;
51692;SDS011;37777;53.066;21.638;2022-07-29T15:56:23;5.72;;;1.00;;
51692;SDS011;37777;53.066;21.638;2022-07-29T16:03:26;7.03;;;1.35;;
51692;SDS011;37777;53.066;21.638;2022-07-29T16:10:28;2.85;;;1.13;;
51692;SDS011;37777;53.066;21.638;2022-07-29T16:17:31;1.42;;;1.00;;
51692;SDS011;37777;53.066;21.638;2022-07-29T16:24:33;2.38;;;1.10;;
51692;SDS011;37777;53.066;21.638;2022-07-29T16:31:36;0.95;;;0.80;;
51692;SDS011;37777;53.066;21.638;2022-07-29T16:38:38;2.08;;;0.90;;
51692;SDS011;37777;53.066;21.638;2022-07-29T16:45:47;1.42;;;0.90;;
51692;SDS011;37777;53.066;21.638;2022-07-29T16:52:49;1.80;;;1.00;;
51692;SDS011;37777;53.066;21.638;2022-07-29T16:59:52;4.32;;;1.02;;
51692;SDS011;37777;53.066;21.638;2022-07-29T17:06:54;3.60;;;1.10;;
51692;SDS011;37777;53.066;21.638;2022-07-29T17:13:56;3.17;;;2.33;;
51692;SDS011;37777;53.066;21.638;2022-07-29T17:20:59;4.68;;;1.30;;
51692;SDS011;37777;53.066;21.638;2022-07-29T17:28:01;3.70;;;1.10;;
51692;SDS011;37777;53.066;21.638;2022-07-29T17:35:04;8.43;;;1.10;;
51692;SDS011;37777;53.066;21.638;2022-07-29T17:42:29;6.45;;;1.10;;
51692;SDS011;37777;53.066;21.638;2022-07-29T17:49:31;2.35;;;1.30;;
51692;SDS011;37777;53.066;21.638;2022-07-29T17:56:37;10.95;;;1.33;;
51692;SDS011;37777;53.066;21.638;2022-07-29T18:03:39;3.17;;;1.40;;
51692;SDS011;37777;53.066;21.638;2022-07-29T18:10:42;6.07;;;1.88;;
51692;SDS011;37777;53.066;21.638;2022-07-29T18:17:45;5.13;;;1.40;;
51692;SDS011;37777;53.066;21.638;2022-07-29T18:24:57;5.15;;;1.55;;
51692;SDS011;37777;53.066;21.638;2022-07-29T18:32:00;7.25;;;1.52;;
51692;SDS011;37777;53.066;21.638;2022-07-29T18:39:02;8.90;;;1.52;;
51692;SDS011;37777;53.066;21.638;2022-07-29T18:46:04;3.97;;;1.60;;
51692;SDS011;37777;53.066;21.638;2022-07-29T18:53:07;2.90;;;1.50;;
51692;SDS011;37777;53.066;21.638;2022-07-29T19:00:09;10.70;;;2.03;;
51692;SDS011;37777;53.066;21.638;2022-07-29T19:07:16;10.23;;;2.03;;
51692;SDS011;37777;53.066;21.638;2022-07-29T19:14:19;7.38;;;1.60;;
51692;SDS011;37777;53.066;21.638;2022-07-29T19:21:23;25.08;;;2.58;;
51692;SDS011;37777;53.066;21.638;2022-07-29T19:28:25;36.55;;;3.28;;
51692;SDS011;37777;53.066;21.638;2022-07-29T19:35:27;25.77;;;3.38;;
51692;SDS011;37777;53.066;21.638;2022-07-29T19:42:33;8.55;;;2.17;;
51692;SDS011;37777;53.066;21.638;2022-07-29T19:49:36;8.13;;;2.50;;
51692;SDS011;37777;53.066;21.638;2022-07-29T19:56:40;9.63;;;2.15;;
51692;SDS011;37777;53.066;21.638;2022-07-29T20:03:42;5.43;;;2.35;;
51692;SDS011;37777;53.066;21.638;2022-07-29T20:10:45;2.78;;;2.20;;
51692;SDS011;37777;53.066;21.638;2022-07-29T20:17:47;11.45;;;2.90;;
51692;SDS011;37777;53.066;21.638;2022-07-29T20:24:52;6.47;;;2.92;;
51692;SDS011;37777;53.066;21.638;2022-07-29T20:31:53;9.02;;;2.50;;
51692;SDS011;37777;53.066;21.638;2022-07-29T20:38:57;5.57;;;2.38;;
51692;SDS011;37777;53.066;21.638;2022-07-29T20:46:00;7.88;;;2.28;;
51692;SDS011;37777;53.066;21.638;2022-07-29T20:53:02;5.20;;;2.20;;
51692;SDS011;37777;53.066;21.638;2022-07-29T21:00:04;6.10;;;2.40;;
51692;SDS011;37777;53.066;21.638;2022-07-29T21:07:07;5.75;;;2.10;;
51692;SDS011;37777;53.066;21.638;2022-07-29T21:14:09;8.32;;;2.22;;
51692;SDS011;37777;53.066;21.638;2022-07-29T21:21:22;3.50;;;2.30;;
51692;SDS011;37777;53.066;21.638;2022-07-29T21:28:27;4.18;;;2.17;;
51692;SDS011;37777;53.066;21.638;2022-07-29T21:35:37;4.97;;;2.08;;
51692;SDS011;37777;53.066;21.638;2022-07-29T21:42:59;5.30;;;2.10;;
51692;SDS011;37777;53.066;21.638;2022-07-29T21:50:01;9.45;;;2.00;;
51692;SDS011;37777;53.066;21.638;2022-07-29T21:57:03;6.55;;;2.47;;
51692;SDS011;37777;53.066;21.638;2022-07-29T22:04:05;6.10;;;2.03;;
51692;SDS011;37777;53.066;21.638;2022-07-29T22:11:07;5.43;;;2.15;;
51692;SDS011;37777;53.066;21.638;2022-07-29T22:18:10;2.95;;;1.90;;
51692;SDS011;37777;53.066;21.638;2022-07-29T22:25:13;2.85;;;1.85;;
51692;SDS011;37777;53.066;21.638;2022-07-29T22:32:15;8.00;;;2.22;;
51692;SDS011;37777;53.066;21.638;2022-07-29T22:39:17;4.70;;;2.20;;
51692;SDS011;37777;53.066;21.638;2022-07-29T22:46:19;3.95;;;2.20;;
51692;SDS011;37777;53.066;21.638;2022-07-29T22:53:22;2.78;;;1.90;;
51692;SDS011;37777;53.066;21.638;2022-07-29T23:00:24;2.17;;;1.90;;
51692;SDS011;37777;53.066;21.638;2022-07-29T23:07:26;2.17;;;1.90;;
51692;SDS011;37777;53.066;21.638;2022-07-29T23:14:28;3.25;;;1.85;;
51692;SDS011;37777;53.066;21.638;2022-07-29T23:21:30;3.83;;;1.85;;
51692;SDS011;37777;53.066;21.638;2022-07-29T23:28:32;6.32;;;2.42;;
51692;SDS011;37777;53.066;21.638;2022-07-29T23:35:34;3.95;;;2.10;;
51692;SDS011;37777;53.066;21.638;2022-07-29T23:42:36;3.67;;;2.22;;
51692;SDS011;37777;53.066;21.638;2022-07-29T23:49:38;2.55;;;1.98;;
51692;SDS011;37777;53.066;21.638;2022-07-29T23:56:41;4.13;;;2.10;;
